Hazel, Kentucky
Current Conditions -  °F | °C
As of 10:55 AM on Tuesday 27 Jan 2015 (Local Time) from KCEY Reporting Station
Broken Clouds Broken Clouds  
Wind Chill: 34°   Ceiling: 2100
Heat Index: 41°   Visibility: 10mi
Dew Point: 32°   Wind: 12mph
Humidity: 70%   Direction: 10°N
Pressure: 30.12"   Gusts: 17mph
Location:  36.5°N, 88.33°W
Report Text: KCEY 271655Z AUTO 01010G15KT 10SM BKN021 BKN026 05/00 A3012 RMK AO1
Loading
Personal Weather Stations






























Interactive Weather Map New forecast layout! Learn more

10-Day Weather Forecast

Advertisements
Track Severe Weather on mobile